sensor_id;sensor_type;location;lat;lon;timestamp;temperature;humidity
26503;DHT22;14177;51.520;6.764;2023-01-15T00:01:54;7.20;99.90
26503;DHT22;14177;51.520;6.764;2023-01-15T00:04:21;7.20;99.90
26503;DHT22;14177;51.520;6.764;2023-01-15T00:06:53;7.30;99.90
26503;DHT22;14177;51.520;6.764;2023-01-15T00:09:26;7.30;99.90
26503;DHT22;14177;51.520;6.764;2023-01-15T00:11:54;7.30;99.90
26503;DHT22;14177;51.520;6.764;2023-01-15T00:14:21;7.30;99.90
26503;DHT22;14177;51.520;6.764;2023-01-15T00:16:52;7.30;99.90
26503;DHT22;14177;51.520;6.764;2023-01-15T00:19:19;7.20;99.90
26503;DHT22;14177;51.520;6.764;2023-01-15T00:21:47;7.30;99.90
26503;DHT22;14177;51.520;6.764;2023-01-15T00:24:15;7.20;99.90
26503;DHT22;14177;51.520;6.764;2023-01-15T00:27:04;7.20;99.90
26503;DHT22;14177;51.520;6.764;2023-01-15T00:29:50;7.20;99.90
26503;DHT22;14177;51.520;6.764;2023-01-15T00:32:20;7.20;99.90
26503;DHT22;14177;51.520;6.764;2023-01-15T00:34:48;7.20;99.90
26503;DHT22;14177;51.520;6.764;2023-01-15T00:37:19;7.20;99.90
26503;DHT22;14177;51.520;6.764;2023-01-15T00:39:50;7.20;99.90
26503;DHT22;14177;51.520;6.764;2023-01-15T00:42:18;7.30;99.90
26503;DHT22;14177;51.520;6.764;2023-01-15T00:44:54;7.30;99.90
26503;DHT22;14177;51.520;6.764;2023-01-15T00:47:38;7.40;99.90
26503;DHT22;14177;51.520;6.764;2023-01-15T00:50:16;7.40;99.90
26503;DHT22;14177;51.520;6.764;2023-01-15T00:52:53;7.50;99.90
26503;DHT22;14177;51.520;6.764;2023-01-15T00:55:23;7.60;99.90
26503;DHT22;14177;51.520;6.764;2023-01-15T00:58:04;7.60;99.90
26503;DHT22;14177;51.520;6.764;2023-01-15T01:00:42;7.70;99.90
26503;DHT22;14177;51.520;6.764;2023-01-15T01:03:21;7.60;99.90
26503;DHT22;14177;51.520;6.764;2023-01-15T01:05:51;7.70;99.90
26503;DHT22;14177;51.520;6.764;2023-01-15T01:08:34;7.70;99.90
26503;DHT22;14177;51.520;6.764;2023-01-15T01:11:20;7.70;99.90
26503;DHT22;14177;51.520;6.764;2023-01-15T01:14:05;7.70;99.90
26503;DHT22;14177;51.520;6.764;2023-01-15T01:16:35;7.70;99.90
26503;DHT22;14177;51.520;6.764;2023-01-15T01:19:09;7.70;99.90
26503;DHT22;14177;51.520;6.764;2023-01-15T01:21:41;7.80;99.90
26503;DHT22;14177;51.520;6.764;2023-01-15T01:24:13;7.80;99.90
26503;DHT22;14177;51.520;6.764;2023-01-15T01:26:47;7.80;99.90
26503;DHT22;14177;51.520;6.764;2023-01-15T01:29:18;7.70;99.90
26503;DHT22;14177;51.520;6.764;2023-01-15T01:31:53;7.70;99.90
26503;DHT22;14177;51.520;6.764;2023-01-15T01:34:22;7.70;99.90
26503;DHT22;14177;51.520;6.764;2023-01-15T01:36:50;7.70;99.90
26503;DHT22;14177;51.520;6.764;2023-01-15T01:39:18;7.70;99.90
26503;DHT22;14177;51.520;6.764;2023-01-15T01:41:50;7.80;99.90
26503;DHT22;14177;51.520;6.764;2023-01-15T01:47:01;7.80;99.90
26503;DHT22;14177;51.520;6.764;2023-01-15T01:49:33;7.80;99.90
26503;DHT22;14177;51.520;6.764;2023-01-15T01:52:05;7.80;99.90
26503;DHT22;14177;51.520;6.764;2023-01-15T01:54:37;7.80;99.90
26503;DHT22;14177;51.520;6.764;2023-01-15T01:57:06;7.80;99.90
26503;DHT22;14177;51.520;6.764;2023-01-15T01:59:36;7.80;99.90
26503;DHT22;14177;51.520;6.764;2023-01-15T02:02:04;7.70;99.90
26503;DHT22;14177;51.520;6.764;2023-01-15T02:04:32;7.80;99.90
26503;DHT22;14177;51.520;6.764;2023-01-15T02:07:02;7.80;99.90
26503;DHT22;14177;51.520;6.764;2023-01-15T02:09:33;7.70;99.90
26503;DHT22;14177;51.520;6.764;2023-01-15T02:12:27;7.70;99.90
26503;DHT22;14177;51.520;6.764;2023-01-15T02:15:11;7.70;99.90
26503;DHT22;14177;51.520;6.764;2023-01-15T02:17:56;7.70;99.90
26503;DHT22;14177;51.520;6.764;2023-01-15T02:20:53;7.80;99.90
26503;DHT22;14177;51.520;6.764;2023-01-15T02:24:18;7.80;99.90
26503;DHT22;14177;51.520;6.764;2023-01-15T02:35:20;7.80;99.90
26503;DHT22;14177;51.520;6.764;2023-01-15T02:37:54;7.70;99.90
26503;DHT22;14177;51.520;6.764;2023-01-15T02:40:27;7.70;99.90
26503;DHT22;14177;51.520;6.764;2023-01-15T02:42:56;7.60;99.90
26503;DHT22;14177;51.520;6.764;2023-01-15T02:45:30;7.60;99.90
26503;DHT22;14177;51.520;6.764;2023-01-15T02:48:12;7.70;99.90
26503;DHT22;14177;51.520;6.764;2023-01-15T02:50:45;7.60;99.90
26503;DHT22;14177;51.520;6.764;2023-01-15T02:53:26;7.60;99.90
26503;DHT22;14177;51.520;6.764;2023-01-15T02:56:03;7.60;99.90
26503;DHT22;14177;51.520;6.764;2023-01-15T02:58:44;7.70;99.90
26503;DHT22;14177;51.520;6.764;2023-01-15T03:04:32;7.70;99.90
26503;DHT22;14177;51.520;6.764;2023-01-15T03:07:17;7.70;99.90
26503;DHT22;14177;51.520;6.764;2023-01-15T03:09:49;7.80;99.90
26503;DHT22;14177;51.520;6.764;2023-01-15T03:12:33;7.70;99.90
26503;DHT22;14177;51.520;6.764;2023-01-15T03:16:03;7.80;99.90
26503;DHT22;14177;51.520;6.764;2023-01-15T03:22:16;7.80;99.90
26503;DHT22;14177;51.520;6.764;2023-01-15T03:25:05;7.70;99.90
26503;DHT22;14177;51.520;6.764;2023-01-15T03:27:42;7.70;99.90
26503;DHT22;14177;51.520;6.764;2023-01-15T03:30:19;7.70;99.90
26503;DHT22;14177;51.520;6.764;2023-01-15T03:32:48;7.80;99.90
26503;DHT22;14177;51.520;6.764;2023-01-15T03:35:55;7.70;99.90
26503;DHT22;14177;51.520;6.764;2023-01-15T03:38:51;7.70;99.90
26503;DHT22;14177;51.520;6.764;2023-01-15T03:44:39;7.70;99.90
26503;DHT22;14177;51.520;6.764;2023-01-15T03:58:55;7.70;99.90
26503;DHT22;14177;51.520;6.764;2023-01-15T04:01:39;7.60;99.90
26503;DHT22;14177;51.520;6.764;2023-01-15T04:04:10;7.70;99.90
26503;DHT22;14177;51.520;6.764;2023-01-15T04:06:41;7.60;99.90
26503;DHT22;14177;51.520;6.764;2023-01-15T04:09:11;7.60;99.90
26503;DHT22;14177;51.520;6.764;2023-01-15T04:11:41;7.60;99.90
26503;DHT22;14177;51.520;6.764;2023-01-15T04:14:11;7.60;99.90
26503;DHT22;14177;51.520;6.764;2023-01-15T04:16:46;7.60;99.90
26503;DHT22;14177;51.520;6.764;2023-01-15T04:19:14;7.60;99.90
26503;DHT22;14177;51.520;6.764;2023-01-15T04:21:57;7.60;99.90
26503;DHT22;14177;51.520;6.764;2023-01-15T04:24:25;7.60;99.90
26503;DHT22;14177;51.520;6.764;2023-01-15T04:26:52;7.70;99.90
26503;DHT22;14177;51.520;6.764;2023-01-15T04:29:19;7.70;99.90
26503;DHT22;14177;51.520;6.764;2023-01-15T04:31:46;7.60;99.90
26503;DHT22;14177;51.520;6.764;2023-01-15T04:34:13;7.60;99.90
26503;DHT22;14177;51.520;6.764;2023-01-15T04:36:40;7.60;99.90
26503;DHT22;14177;51.520;6.764;2023-01-15T04:39:12;7.60;99.90
26503;DHT22;14177;51.520;6.764;2023-01-15T04:41:39;7.50;99.90
26503;DHT22;14177;51.520;6.764;2023-01-15T04:44:24;7.60;99.90
26503;DHT22;14177;51.520;6.764;2023-01-15T04:46:54;7.60;99.90
26503;DHT22;14177;51.520;6.764;2023-01-15T04:49:23;7.60;99.90
26503;DHT22;14177;51.520;6.764;2023-01-15T04:51:50;7.60;99.90
26503;DHT22;14177;51.520;6.764;2023-01-15T04:54:18;7.60;99.90
26503;DHT22;14177;51.520;6.764;2023-01-15T04:56:48;7.70;99.90
26503;DHT22;14177;51.520;6.764;2023-01-15T04:59:18;7.70;99.90
26503;DHT22;14177;51.520;6.764;2023-01-15T05:01:47;7.70;99.90
26503;DHT22;14177;51.520;6.764;2023-01-15T05:04:29;7.70;99.90
26503;DHT22;14177;51.520;6.764;2023-01-15T05:06:57;7.70;99.90
26503;DHT22;14177;51.520;6.764;2023-01-15T05:09:24;7.70;99.90
26503;DHT22;14177;51.520;6.764;2023-01-15T05:11:51;7.70;99.90
26503;DHT22;14177;51.520;6.764;2023-01-15T05:14:18;7.70;99.90
26503;DHT22;14177;51.520;6.764;2023-01-15T05:16:45;7.70;99.90
26503;DHT22;14177;51.520;6.764;2023-01-15T05:19:12;7.70;99.90
26503;DHT22;14177;51.520;6.764;2023-01-15T05:21:41;7.70;99.90
26503;DHT22;14177;51.520;6.764;2023-01-15T05:24:12;7.70;99.90
26503;DHT22;14177;51.520;6.764;2023-01-15T05:26:41;7.70;99.90
26503;DHT22;14177;51.520;6.764;2023-01-15T05:29:10;7.70;99.90
26503;DHT22;14177;51.520;6.764;2023-01-15T05:31:38;7.70;99.90
26503;DHT22;14177;51.520;6.764;2023-01-15T05:34:05;7.70;99.90
26503;DHT22;14177;51.520;6.764;2023-01-15T05:36:32;7.70;99.90
26503;DHT22;14177;51.520;6.764;2023-01-15T05:38:59;7.70;99.90
26503;DHT22;14177;51.520;6.764;2023-01-15T05:41:28;7.70;99.90
26503;DHT22;14177;51.520;6.764;2023-01-15T05:44:20;7.70;99.90
26503;DHT22;14177;51.520;6.764;2023-01-15T05:46:52;7.70;99.90
26503;DHT22;14177;51.520;6.764;2023-01-15T05:49:23;7.70;99.90
26503;DHT22;14177;51.520;6.764;2023-01-15T05:51:52;7.70;99.90
26503;DHT22;14177;51.520;6.764;2023-01-15T05:54:27;7.70;99.90
26503;DHT22;14177;51.520;6.764;2023-01-15T05:56:56;7.70;99.90
26503;DHT22;14177;51.520;6.764;2023-01-15T05:59:25;7.60;99.90
26503;DHT22;14177;51.520;6.764;2023-01-15T06:01:54;7.60;99.90
26503;DHT22;14177;51.520;6.764;2023-01-15T06:04:22;7.50;99.90
26503;DHT22;14177;51.520;6.764;2023-01-15T06:06:53;7.50;99.90
26503;DHT22;14177;51.520;6.764;2023-01-15T06:09:21;7.50;99.90
26503;DHT22;14177;51.520;6.764;2023-01-15T06:11:50;7.50;99.90
26503;DHT22;14177;51.520;6.764;2023-01-15T06:14:17;7.50;99.90
26503;DHT22;14177;51.520;6.764;2023-01-15T06:16:44;7.50;99.90
26503;DHT22;14177;51.520;6.764;2023-01-15T06:19:13;7.50;99.90
26503;DHT22;14177;51.520;6.764;2023-01-15T06:21:40;7.50;99.90
26503;DHT22;14177;51.520;6.764;2023-01-15T06:24:07;7.50;99.90
26503;DHT22;14177;51.520;6.764;2023-01-15T06:26:36;7.60;99.90
26503;DHT22;14177;51.520;6.764;2023-01-15T06:29:04;7.60;99.90
26503;DHT22;14177;51.520;6.764;2023-01-15T06:31:31;7.70;99.90
26503;DHT22;14177;51.520;6.764;2023-01-15T06:33:58;7.70;99.90
26503;DHT22;14177;51.520;6.764;2023-01-15T06:36:26;7.80;99.90
26503;DHT22;14177;51.520;6.764;2023-01-15T06:38:54;7.70;99.90
26503;DHT22;14177;51.520;6.764;2023-01-15T06:41:24;7.70;99.90
26503;DHT22;14177;51.520;6.764;2023-01-15T06:44:13;7.70;99.90
26503;DHT22;14177;51.520;6.764;2023-01-15T06:47:04;7.60;99.90
26503;DHT22;14177;51.520;6.764;2023-01-15T06:49:49;7.60;99.90
26503;DHT22;14177;51.520;6.764;2023-01-15T06:52:25;7.60;99.90
26503;DHT22;14177;51.520;6.764;2023-01-15T06:54:56;7.60;99.90
26503;DHT22;14177;51.520;6.764;2023-01-15T06:57:23;7.60;99.90
26503;DHT22;14177;51.520;6.764;2023-01-15T06:59:50;7.60;99.90
26503;DHT22;14177;51.520;6.764;2023-01-15T07:02:18;7.60;99.90
26503;DHT22;14177;51.520;6.764;2023-01-15T07:04:46;7.60;99.90
26503;DHT22;14177;51.520;6.764;2023-01-15T07:07:18;7.60;99.90
26503;DHT22;14177;51.520;6.764;2023-01-15T07:09:46;7.60;99.90
26503;DHT22;14177;51.520;6.764;2023-01-15T07:12:13;7.60;99.90
26503;DHT22;14177;51.520;6.764;2023-01-15T07:14:40;7.60;99.90
26503;DHT22;14177;51.520;6.764;2023-01-15T07:17:07;7.60;99.90
26503;DHT22;14177;51.520;6.764;2023-01-15T07:19:35;7.60;99.90
26503;DHT22;14177;51.520;6.764;2023-01-15T07:22:02;7.50;99.90
26503;DHT22;14177;51.520;6.764;2023-01-15T07:24:30;7.50;99.90
26503;DHT22;14177;51.520;6.764;2023-01-15T07:26:56;7.50;99.90
26503;DHT22;14177;51.520;6.764;2023-01-15T07:29:24;7.60;99.90
26503;DHT22;14177;51.520;6.764;2023-01-15T07:31:51;7.50;99.90
26503;DHT22;14177;51.520;6.764;2023-01-15T07:34:19;7.50;99.90
26503;DHT22;14177;51.520;6.764;2023-01-15T07:36:46;7.60;99.90
26503;DHT22;14177;51.520;6.764;2023-01-15T07:39:13;7.60;99.90
26503;DHT22;14177;51.520;6.764;2023-01-15T07:41:40;7.60;99.90
26503;DHT22;14177;51.520;6.764;2023-01-15T07:44:26;7.50;99.90
26503;DHT22;14177;51.520;6.764;2023-01-15T07:47:23;7.50;99.90
26503;DHT22;14177;51.520;6.764;2023-01-15T07:50:12;7.50;99.90
26503;DHT22;14177;51.520;6.764;2023-01-15T07:52:43;7.50;99.90
26503;DHT22;14177;51.520;6.764;2023-01-15T07:55:11;7.50;99.90
26503;DHT22;14177;51.520;6.764;2023-01-15T07:57:39;7.50;99.90
26503;DHT22;14177;51.520;6.764;2023-01-15T08:00:10;7.50;99.90
26503;DHT22;14177;51.520;6.764;2023-01-15T08:02:39;7.40;99.90
26503;DHT22;14177;51.520;6.764;2023-01-15T08:05:07;7.40;99.90
26503;DHT22;14177;51.520;6.764;2023-01-15T08:07:39;7.40;99.90
26503;DHT22;14177;51.520;6.764;2023-01-15T08:10:08;7.40;99.90
26503;DHT22;14177;51.520;6.764;2023-01-15T08:12:37;7.50;99.90
26503;DHT22;14177;51.520;6.764;2023-01-15T08:15:24;7.50;99.90
26503;DHT22;14177;51.520;6.764;2023-01-15T08:17:51;7.50;99.90
26503;DHT22;14177;51.520;6.764;2023-01-15T08:20:24;7.50;99.90
26503;DHT22;14177;51.520;6.764;2023-01-15T08:22:52;7.50;99.90
26503;DHT22;14177;51.520;6.764;2023-01-15T08:25:22;7.50;99.90
26503;DHT22;14177;51.520;6.764;2023-01-15T08:27:50;7.50;99.90
26503;DHT22;14177;51.520;6.764;2023-01-15T08:30:20;7.50;99.90
26503;DHT22;14177;51.520;6.764;2023-01-15T08:32:49;7.50;99.90
26503;DHT22;14177;51.520;6.764;2023-01-15T08:35:16;7.50;99.90
26503;DHT22;14177;51.520;6.764;2023-01-15T08:37:43;7.50;99.90
26503;DHT22;14177;51.520;6.764;2023-01-15T08:40:11;7.50;99.90
26503;DHT22;14177;51.520;6.764;2023-01-15T08:42:38;7.40;99.90
26503;DHT22;14177;51.520;6.764;2023-01-15T08:45:06;7.40;99.90
26503;DHT22;14177;51.520;6.764;2023-01-15T08:47:34;7.30;99.90
26503;DHT22;14177;51.520;6.764;2023-01-15T08:50:04;7.30;99.90
26503;DHT22;14177;51.520;6.764;2023-01-15T08:52:35;7.30;99.90
26503;DHT22;14177;51.520;6.764;2023-01-15T08:55:04;7.30;99.90
26503;DHT22;14177;51.520;6.764;2023-01-15T08:57:32;7.20;99.90
26503;DHT22;14177;51.520;6.764;2023-01-15T08:59:59;7.20;99.90
26503;DHT22;14177;51.520;6.764;2023-01-15T09:02:25;7.20;99.90
26503;DHT22;14177;51.520;6.764;2023-01-15T09:04:54;7.20;99.90
26503;DHT22;14177;51.520;6.764;2023-01-15T09:07:21;7.20;99.90
26503;DHT22;14177;51.520;6.764;2023-01-15T09:09:48;7.20;99.90
26503;DHT22;14177;51.520;6.764;2023-01-15T09:12:15;7.20;99.90
26503;DHT22;14177;51.520;6.764;2023-01-15T09:14:42;7.20;99.90
26503;DHT22;14177;51.520;6.764;2023-01-15T09:17:29;7.20;99.90
26503;DHT22;14177;51.520;6.764;2023-01-15T09:19:57;7.20;99.90
26503;DHT22;14177;51.520;6.764;2023-01-15T09:22:25;7.30;99.90
26503;DHT22;14177;51.520;6.764;2023-01-15T09:24:55;7.20;99.90
26503;DHT22;14177;51.520;6.764;2023-01-15T09:27:22;7.30;99.90
26503;DHT22;14177;51.520;6.764;2023-01-15T09:29:49;7.40;99.90
26503;DHT22;14177;51.520;6.764;2023-01-15T09:32:16;7.70;99.90
26503;DHT22;14177;51.520;6.764;2023-01-15T09:34:42;8.20;99.90
26503;DHT22;14177;51.520;6.764;2023-01-15T09:37:09;8.70;99.90
26503;DHT22;14177;51.520;6.764;2023-01-15T09:39:37;9.10;99.90
26503;DHT22;14177;51.520;6.764;2023-01-15T09:45:27;9.70;99.90
26503;DHT22;14177;51.520;6.764;2023-01-15T09:51:07;9.80;99.90
26503;DHT22;14177;51.520;6.764;2023-01-15T09:56:23;9.40;99.90
26503;DHT22;14177;51.520;6.764;2023-01-15T09:58:55;9.00;99.90
26503;DHT22;14177;51.520;6.764;2023-01-15T10:01:29;8.50;99.90
26503;DHT22;14177;51.520;6.764;2023-01-15T10:04:14;8.30;99.90
26503;DHT22;14177;51.520;6.764;2023-01-15T10:10:09;8.40;99.90
26503;DHT22;14177;51.520;6.764;2023-01-15T10:12:43;8.20;99.90
26503;DHT22;14177;51.520;6.764;2023-01-15T10:17:57;8.10;99.90
26503;DHT22;14177;51.520;6.764;2023-01-15T10:20:38;8.20;99.90
26503;DHT22;14177;51.520;6.764;2023-01-15T10:26:56;8.30;99.90
26503;DHT22;14177;51.520;6.764;2023-01-15T10:32:50;9.40;99.90
26503;DHT22;14177;51.520;6.764;2023-01-15T10:35:42;9.30;99.90
26503;DHT22;14177;51.520;6.764;2023-01-15T10:44:45;8.70;99.90
26503;DHT22;14177;51.520;6.764;2023-01-15T10:47:24;8.70;99.90
26503;DHT22;14177;51.520;6.764;2023-01-15T10:49:58;8.80;99.90
26503;DHT22;14177;51.520;6.764;2023-01-15T10:52:34;8.60;99.90
26503;DHT22;14177;51.520;6.764;2023-01-15T10:55:13;8.60;99.90
26503;DHT22;14177;51.520;6.764;2023-01-15T11:00:53;9.60;99.80
26503;DHT22;14177;51.520;6.764;2023-01-15T11:03:43;9.60;99.30
26503;DHT22;14177;51.520;6.764;2023-01-15T11:06:15;9.20;99.70
26503;DHT22;14177;51.520;6.764;2023-01-15T11:08:56;9.10;99.90
26503;DHT22;14177;51.520;6.764;2023-01-15T11:11:50;8.90;99.90
26503;DHT22;14177;51.520;6.764;2023-01-15T11:14:42;8.80;99.90
26503;DHT22;14177;51.520;6.764;2023-01-15T11:17:42;8.80;99.90
26503;DHT22;14177;51.520;6.764;2023-01-15T11:20:33;9.10;99.70
26503;DHT22;14177;51.520;6.764;2023-01-15T11:23:20;9.00;99.20
26503;DHT22;14177;51.520;6.764;2023-01-15T11:28:41;8.70;99.90
26503;DHT22;14177;51.520;6.764;2023-01-15T11:31:11;8.70;99.90
26503;DHT22;14177;51.520;6.764;2023-01-15T11:34:04;8.70;99.90
26503;DHT22;14177;51.520;6.764;2023-01-15T11:36:32;8.60;99.90
26503;DHT22;14177;51.520;6.764;2023-01-15T11:39:00;8.50;99.90
26503;DHT22;14177;51.520;6.764;2023-01-15T11:41:32;8.50;99.90
26503;DHT22;14177;51.520;6.764;2023-01-15T11:44:21;8.40;99.90
26503;DHT22;14177;51.520;6.764;2023-01-15T11:47:17;8.50;99.90
26503;DHT22;14177;51.520;6.764;2023-01-15T11:57:47;8.60;99.90
26503;DHT22;14177;51.520;6.764;2023-01-15T12:00:33;8.40;99.90
26503;DHT22;14177;51.520;6.764;2023-01-15T12:03:20;8.30;99.90
26503;DHT22;14177;51.520;6.764;2023-01-15T12:06:05;8.40;99.90
26503;DHT22;14177;51.520;6.764;2023-01-15T12:08:43;8.40;99.90
26503;DHT22;14177;51.520;6.764;2023-01-15T12:11:28;8.40;99.90
26503;DHT22;14177;51.520;6.764;2023-01-15T12:17:39;8.40;99.90
26503;DHT22;14177;51.520;6.764;2023-01-15T12:30:08;8.30;99.90
26503;DHT22;14177;51.520;6.764;2023-01-15T12:35:57;8.30;99.90
26503;DHT22;14177;51.520;6.764;2023-01-15T12:38:45;8.40;99.90
26503;DHT22;14177;51.520;6.764;2023-01-15T12:41:25;9.00;99.90
26503;DHT22;14177;51.520;6.764;2023-01-15T12:56:18;8.40;99.90
26503;DHT22;14177;51.520;6.764;2023-01-15T13:04:33;8.30;99.90
26503;DHT22;14177;51.520;6.764;2023-01-15T13:10:16;8.30;99.90
26503;DHT22;14177;51.520;6.764;2023-01-15T13:13:21;8.20;99.90
26503;DHT22;14177;51.520;6.764;2023-01-15T13:16:20;8.10;99.90
26503;DHT22;14177;51.520;6.764;2023-01-15T13:22:22;8.20;99.90
26503;DHT22;14177;51.520;6.764;2023-01-15T13:28:28;8.20;99.90
26503;DHT22;14177;51.520;6.764;2023-01-15T13:34:14;8.20;99.90
26503;DHT22;14177;51.520;6.764;2023-01-15T13:37:30;8.20;99.90
26503;DHT22;14177;51.520;6.764;2023-01-15T13:43:29;8.20;99.90
26503;DHT22;14177;51.520;6.764;2023-01-15T13:46:02;8.30;99.90
26503;DHT22;14177;51.520;6.764;2023-01-15T13:48:39;8.20;99.90
26503;DHT22;14177;51.520;6.764;2023-01-15T13:51:28;8.30;99.90
26503;DHT22;14177;51.520;6.764;2023-01-15T13:54:12;8.30;99.90
26503;DHT22;14177;51.520;6.764;2023-01-15T13:56:44;8.40;99.90
26503;DHT22;14177;51.520;6.764;2023-01-15T13:59:38;8.40;99.90
26503;DHT22;14177;51.520;6.764;2023-01-15T14:02:33;8.40;99.90
26503;DHT22;14177;51.520;6.764;2023-01-15T14:07:50;8.50;99.90
26503;DHT22;14177;51.520;6.764;2023-01-15T14:12:50;8.60;99.90
26503;DHT22;14177;51.520;6.764;2023-01-15T14:21:47;8.60;99.90
26503;DHT22;14177;51.520;6.764;2023-01-15T14:30:31;8.50;99.90
26503;DHT22;14177;51.520;6.764;2023-01-15T14:33:29;8.40;99.90
26503;DHT22;14177;51.520;6.764;2023-01-15T14:36:22;8.50;99.90
26503;DHT22;14177;51.520;6.764;2023-01-15T14:38:58;8.40;99.90
26503;DHT22;14177;51.520;6.764;2023-01-15T14:41:29;8.40;99.90
26503;DHT22;14177;51.520;6.764;2023-01-15T14:44:00;8.40;99.90
26503;DHT22;14177;51.520;6.764;2023-01-15T14:46:30;8.40;99.90
26503;DHT22;14177;51.520;6.764;2023-01-15T14:49:30;8.40;99.90
26503;DHT22;14177;51.520;6.764;2023-01-15T14:52:07;8.40;99.90
26503;DHT22;14177;51.520;6.764;2023-01-15T14:54:37;8.30;99.90
26503;DHT22;14177;51.520;6.764;2023-01-15T14:57:07;8.40;99.90
26503;DHT22;14177;51.520;6.764;2023-01-15T14:59:41;8.40;99.90
26503;DHT22;14177;51.520;6.764;2023-01-15T15:02:28;8.40;99.90
26503;DHT22;14177;51.520;6.764;2023-01-15T15:05:04;8.40;99.90
26503;DHT22;14177;51.520;6.764;2023-01-15T15:07:46;8.40;99.90
26503;DHT22;14177;51.520;6.764;2023-01-15T15:10:20;8.40;99.90
26503;DHT22;14177;51.520;6.764;2023-01-15T15:16:26;8.30;99.90
26503;DHT22;14177;51.520;6.764;2023-01-15T15:19:44;8.30;99.90
26503;DHT22;14177;51.520;6.764;2023-01-15T15:22:14;8.30;99.90
26503;DHT22;14177;51.520;6.764;2023-01-15T15:24:47;8.30;99.90
26503;DHT22;14177;51.520;6.764;2023-01-15T15:27:19;8.20;99.90
26503;DHT22;14177;51.520;6.764;2023-01-15T15:29:48;8.30;99.90
26503;DHT22;14177;51.520;6.764;2023-01-15T15:32:20;8.20;99.90
26503;DHT22;14177;51.520;6.764;2023-01-15T15:34:50;8.20;99.90
26503;DHT22;14177;51.520;6.764;2023-01-15T15:37:21;8.20;99.90
26503;DHT22;14177;51.520;6.764;2023-01-15T15:40:14;8.10;99.90
26503;DHT22;14177;51.520;6.764;2023-01-15T15:43:03;8.10;99.90
26503;DHT22;14177;51.520;6.764;2023-01-15T15:45:51;8.20;99.90
26503;DHT22;14177;51.520;6.764;2023-01-15T15:48:39;8.20;99.90
26503;DHT22;14177;51.520;6.764;2023-01-15T15:54:20;8.20;99.90
26503;DHT22;14177;51.520;6.764;2023-01-15T15:57:05;8.20;99.90
26503;DHT22;14177;51.520;6.764;2023-01-15T15:59:42;8.10;99.90
26503;DHT22;14177;51.520;6.764;2023-01-15T16:02:39;8.10;99.90
26503;DHT22;14177;51.520;6.764;2023-01-15T16:05:19;8.10;99.90
26503;DHT22;14177;51.520;6.764;2023-01-15T16:08:17;8.10;99.90
26503;DHT22;14177;51.520;6.764;2023-01-15T16:10:50;8.20;99.90
26503;DHT22;14177;51.520;6.764;2023-01-15T16:21:57;8.10;99.90
26503;DHT22;14177;51.520;6.764;2023-01-15T16:24:26;8.10;99.90
26503;DHT22;14177;51.520;6.764;2023-01-15T16:27:06;8.10;99.90
26503;DHT22;14177;51.520;6.764;2023-01-15T16:29:48;8.10;99.90
26503;DHT22;14177;51.520;6.764;2023-01-15T16:32:22;8.00;99.90
26503;DHT22;14177;51.520;6.764;2023-01-15T16:35:13;8.00;99.90
26503;DHT22;14177;51.520;6.764;2023-01-15T16:37:47;8.00;99.90
26503;DHT22;14177;51.520;6.764;2023-01-15T16:40:28;7.90;99.90
26503;DHT22;14177;51.520;6.764;2023-01-15T16:43:06;7.90;99.90
26503;DHT22;14177;51.520;6.764;2023-01-15T16:45:56;7.90;99.90
26503;DHT22;14177;51.520;6.764;2023-01-15T16:48:31;7.90;99.90
26503;DHT22;14177;51.520;6.764;2023-01-15T16:51:29;7.80;99.90
26503;DHT22;14177;51.520;6.764;2023-01-15T16:54:05;7.80;99.90
26503;DHT22;14177;51.520;6.764;2023-01-15T16:56:59;7.80;99.90
26503;DHT22;14177;51.520;6.764;2023-01-15T17:02:17;7.70;99.90
26503;DHT22;14177;51.520;6.764;2023-01-15T17:04:48;7.80;99.90
26503;DHT22;14177;51.520;6.764;2023-01-15T17:10:16;7.80;99.90
26503;DHT22;14177;51.520;6.764;2023-01-15T17:12:46;7.80;99.90
26503;DHT22;14177;51.520;6.764;2023-01-15T17:17:44;7.90;99.90
26503;DHT22;14177;51.520;6.764;2023-01-15T17:20:17;7.90;99.90
26503;DHT22;14177;51.520;6.764;2023-01-15T17:22:47;7.90;99.90
26503;DHT22;14177;51.520;6.764;2023-01-15T17:25:30;7.90;99.90
26503;DHT22;14177;51.520;6.764;2023-01-15T17:28:13;7.90;99.90
26503;DHT22;14177;51.520;6.764;2023-01-15T17:30:41;7.90;99.90
26503;DHT22;14177;51.520;6.764;2023-01-15T17:33:09;7.80;99.90
26503;DHT22;14177;51.520;6.764;2023-01-15T17:35:38;7.80;99.90
26503;DHT22;14177;51.520;6.764;2023-01-15T17:38:08;7.80;99.90
26503;DHT22;14177;51.520;6.764;2023-01-15T17:40:37;7.80;99.90
26503;DHT22;14177;51.520;6.764;2023-01-15T17:43:04;7.80;99.90
26503;DHT22;14177;51.520;6.764;2023-01-15T17:45:32;7.80;99.90
26503;DHT22;14177;51.520;6.764;2023-01-15T17:48:00;7.80;99.90
26503;DHT22;14177;51.520;6.764;2023-01-15T17:50:29;7.80;99.90
26503;DHT22;14177;51.520;6.764;2023-01-15T17:52:56;7.80;99.90
26503;DHT22;14177;51.520;6.764;2023-01-15T17:55:23;7.90;99.90
26503;DHT22;14177;51.520;6.764;2023-01-15T17:58:12;7.90;99.90
26503;DHT22;14177;51.520;6.764;2023-01-15T18:01:14;7.80;99.90
26503;DHT22;14177;51.520;6.764;2023-01-15T18:04:04;7.80;99.90
26503;DHT22;14177;51.520;6.764;2023-01-15T18:06:55;7.80;99.90
26503;DHT22;14177;51.520;6.764;2023-01-15T18:09:22;7.80;99.90
26503;DHT22;14177;51.520;6.764;2023-01-15T18:11:50;7.70;99.90
26503;DHT22;14177;51.520;6.764;2023-01-15T18:14:21;7.80;99.90
26503;DHT22;14177;51.520;6.764;2023-01-15T18:16:49;7.90;99.90
26503;DHT22;14177;51.520;6.764;2023-01-15T18:19:17;7.90;99.90
26503;DHT22;14177;51.520;6.764;2023-01-15T18:21:44;7.90;99.90
26503;DHT22;14177;51.520;6.764;2023-01-15T18:24:11;7.90;99.90
26503;DHT22;14177;51.520;6.764;2023-01-15T18:26:40;7.80;99.90
26503;DHT22;14177;51.520;6.764;2023-01-15T18:29:08;7.70;99.90
26503;DHT22;14177;51.520;6.764;2023-01-15T18:31:37;7.70;99.90
26503;DHT22;14177;51.520;6.764;2023-01-15T18:34:06;7.70;99.90
26503;DHT22;14177;51.520;6.764;2023-01-15T18:36:33;7.80;99.90
26503;DHT22;14177;51.520;6.764;2023-01-15T18:39:00;7.70;99.90
26503;DHT22;14177;51.520;6.764;2023-01-15T18:41:34;7.80;99.90
26503;DHT22;14177;51.520;6.764;2023-01-15T18:46:54;7.70;99.90
26503;DHT22;14177;51.520;6.764;2023-01-15T18:49:23;7.80;99.90
26503;DHT22;14177;51.520;6.764;2023-01-15T18:51:50;7.80;99.90
26503;DHT22;14177;51.520;6.764;2023-01-15T18:54:37;7.80;99.90
26503;DHT22;14177;51.520;6.764;2023-01-15T18:57:04;7.70;99.90
26503;DHT22;14177;51.520;6.764;2023-01-15T18:59:32;7.70;99.90
26503;DHT22;14177;51.520;6.764;2023-01-15T19:02:00;7.60;99.90
26503;DHT22;14177;51.520;6.764;2023-01-15T19:04:27;7.70;99.90
26503;DHT22;14177;51.520;6.764;2023-01-15T19:06:54;7.70;99.90
26503;DHT22;14177;51.520;6.764;2023-01-15T19:09:22;7.60;99.90
26503;DHT22;14177;51.520;6.764;2023-01-15T19:11:50;7.60;99.90
26503;DHT22;14177;51.520;6.764;2023-01-15T19:14:19;7.60;99.90
26503;DHT22;14177;51.520;6.764;2023-01-15T19:17:12;7.50;99.90
26503;DHT22;14177;51.520;6.764;2023-01-15T19:20:08;7.50;99.90
26503;DHT22;14177;51.520;6.764;2023-01-15T19:22:37;7.50;99.90
26503;DHT22;14177;51.520;6.764;2023-01-15T19:25:49;7.50;99.90